createdAt,value
2019-05-16T00:01:21.552Z,75.49
2019-05-16T00:06:28.539Z,75.98
2019-05-16T00:11:33.825Z,76.53
2019-05-16T00:16:43.386Z,77.28
2019-05-16T00:21:52.262Z,77.49
2019-05-16T00:26:58.636Z,77.24
2019-05-16T00:32:08.566Z,77.18
2019-05-16T00:37:18.203Z,77.54
2019-05-16T00:42:22.565Z,77.09
2019-05-16T00:47:32.086Z,77.21
2019-05-16T00:52:39.121Z,77.09
2019-05-16T01:03:08.141Z,77.82
2019-05-16T01:08:18.946Z,77.90
2019-05-16T01:13:31.534Z,78.02
2019-05-16T01:18:41.637Z,78.38
2019-05-16T01:23:48.066Z,78.65
2019-05-16T01:28:57.690Z,78.64
2019-05-16T01:34:09.695Z,78.95
2019-05-16T01:39:13.672Z,78.72
2019-05-16T01:44:18.386Z,78.72
2019-05-16T01:49:28.015Z,78.72
2019-05-16T01:54:43.238Z,78.95
2019-05-16T01:59:51.008Z,78.99
2019-05-16T02:05:01.124Z,78.76
2019-05-16T02:10:09.619Z,78.50
2019-05-16T02:15:18.836Z,77.57
2019-05-16T02:20:30.170Z,77.45
2019-05-16T02:25:34.153Z,77.21
2019-05-16T02:30:43.798Z,76.81
2019-05-16T02:35:55.697Z,76.95
2019-05-16T02:41:05.357Z,77.01
2019-05-16T02:46:14.728Z,76.82
2019-05-16T02:51:25.827Z,76.49
2019-05-16T02:56:31.761Z,76.34
2019-05-16T03:01:42.331Z,76.10
2019-05-16T03:06:53.039Z,76.09
2019-05-16T03:12:01.883Z,76.07
2019-05-16T03:17:05.999Z,76.47
2019-05-16T03:22:22.104Z,76.69
2019-05-16T03:27:32.923Z,76.81
2019-05-16T03:32:45.513Z,76.76
2019-05-16T03:37:55.874Z,76.87
2019-05-16T03:43:02.157Z,76.64
2019-05-16T03:48:06.098Z,77.31
2019-05-16T03:53:11.686Z,78.60
2019-05-16T03:58:16.177Z,77.62
2019-05-16T04:03:32.098Z,77.44
2019-05-16T04:08:33.760Z,77.43
2019-05-16T04:13:40.826Z,78.81
2019-05-16T04:18:46.725Z,77.66
2019-05-16T04:23:56.223Z,77.40
2019-05-16T04:29:03.238Z,77.45
2019-05-16T04:34:07.775Z,77.49
2019-05-16T04:39:12.251Z,77.36
2019-05-16T04:44:16.308Z,77.40
2019-05-16T04:49:21.254Z,77.35
2019-05-16T04:54:25.549Z,77.40
2019-05-16T04:59:31.156Z,77.59
2019-05-16T05:04:35.395Z,77.76
2019-05-16T05:09:40.868Z,77.65
2019-05-16T05:14:45.168Z,77.68
2019-05-16T05:19:50.691Z,77.71
2019-05-16T05:24:54.863Z,77.99
2019-05-16T05:30:01.029Z,77.99
2019-05-16T05:35:05.231Z,77.85
2019-05-16T05:40:10.602Z,77.26
2019-05-16T05:45:15.082Z,77.54
2019-05-16T05:50:20.187Z,77.44
2019-05-16T05:55:24.388Z,77.05
2019-05-16T06:00:30.310Z,76.00
2019-05-16T06:05:34.658Z,76.98
2019-05-16T06:10:40.529Z,77.03
2019-05-16T06:15:44.741Z,75.38
2019-05-16T06:20:51.117Z,75.71
2019-05-16T06:25:55.664Z,75.65
2019-05-16T06:31:01.865Z,74.90
2019-05-16T06:36:05.456Z,75.05
2019-05-16T06:41:10.688Z,75.47
2019-05-16T06:46:14.876Z,75.27
2019-05-16T06:51:20.062Z,76.39
2019-05-16T06:56:24.371Z,76.39
2019-05-16T07:01:29.988Z,77.16
2019-05-16T07:06:51.770Z,76.44
2019-05-16T07:11:42.736Z,76.79
2019-05-16T07:16:49.681Z,76.79
2019-05-16T07:21:53.552Z,76.94
2019-05-16T07:27:00.211Z,76.04
2019-05-16T07:32:04.540Z,76.87
2019-05-16T07:37:10.683Z,76.87
2019-05-16T07:42:14.351Z,76.83
2019-05-16T07:47:20.265Z,77.27
2019-05-16T07:52:24.671Z,77.27
2019-05-16T07:57:30.615Z,77.21
2019-05-16T08:02:34.695Z,76.56
2019-05-16T08:07:40.634Z,76.47
2019-05-16T08:12:44.888Z,77.01
2019-05-16T08:17:51.267Z,76.37
2019-05-16T08:22:54.667Z,76.03
2019-05-16T08:28:01.189Z,74.34
2019-05-16T08:33:05.547Z,74.16
2019-05-16T08:38:13.591Z,73.74
2019-05-16T08:43:15.712Z,75.12
2019-05-16T08:48:22.890Z,72.89
2019-05-16T08:53:26.144Z,74.06
2019-05-16T08:58:33.040Z,73.77
2019-05-16T09:03:36.349Z,73.45
2019-05-16T09:08:40.667Z,72.94
2019-05-16T09:13:47.502Z,72.51
2019-05-16T09:18:51.435Z,72.15
2019-05-16T09:23:57.811Z,71.60
2019-05-16T09:29:02.526Z,71.39
2019-05-16T09:34:07.487Z,72.17
2019-05-16T09:39:11.691Z,72.52
2019-05-16T09:44:18.257Z,72.34
2019-05-16T09:49:24.848Z,71.68
2019-05-16T09:54:27.519Z,70.94
2019-05-16T09:59:31.618Z,72.25
2019-05-16T10:04:36.978Z,72.91
2019-05-16T10:13:11.571Z,72.94
2019-05-16T10:18:17.146Z,73.54
2019-05-16T10:23:22.346Z,72.85
2019-05-16T10:28:27.851Z,72.67
2019-05-16T10:33:33.482Z,73.61
2019-05-16T10:38:39.306Z,72.19
2019-05-16T10:43:47.290Z,73.33
2019-05-16T10:48:51.970Z,72.70
2019-05-16T10:54:08.845Z,72.82
2019-05-16T10:59:37.838Z,71.65
2019-05-16T11:04:24.235Z,72.19
2019-05-16T11:09:18.540Z,71.02
2019-05-16T11:14:23.764Z,71.45
2019-05-16T11:19:29.067Z,71.23
2019-05-16T11:24:37.549Z,70.84
2019-05-16T11:29:42.221Z,70.89
2019-05-16T11:34:47.916Z,71.62
2019-05-16T11:39:53.674Z,71.78
2019-05-16T11:44:59.892Z,70.10
2019-05-16T11:50:07.361Z,69.64
2019-05-16T11:55:13.060Z,68.63
2019-05-16T12:00:18.920Z,68.70
2019-05-16T12:05:26.809Z,68.04
2019-05-16T12:10:31.575Z,67.38
2019-05-16T12:15:37.263Z,68.17
2019-05-16T12:20:42.510Z,68.42
2019-05-16T12:25:47.865Z,67.49
2019-05-16T12:30:53.275Z,68.63
2019-05-16T12:35:58.692Z,67.44
2019-05-16T12:41:04.131Z,69.00
2019-05-16T12:46:09.551Z,66.99
2019-05-16T12:51:17.119Z,68.00
2019-05-16T12:56:22.305Z,68.21
2019-05-16T13:01:34.260Z,68.28
2019-05-16T13:06:37.127Z,67.21
2019-05-16T13:11:42.432Z,67.25
2019-05-16T13:16:48.105Z,66.38
2019-05-16T13:21:53.508Z,67.10
2019-05-16T13:26:59.359Z,67.23
2019-05-16T13:32:07.397Z,65.07
2019-05-16T13:37:11.823Z,63.30
2019-05-16T13:42:17.662Z,64.62
2019-05-16T13:47:23.115Z,65.49
2019-05-16T13:52:28.589Z,64.48
2019-05-16T13:57:34.035Z,64.33
2019-05-16T14:02:39.495Z,63.56
2019-05-16T14:07:47.781Z,65.03
2019-05-16T14:12:52.345Z,64.00
2019-05-16T14:17:57.567Z,64.76
2019-05-16T14:23:02.781Z,63.67
2019-05-16T14:28:08.410Z,63.42
2019-05-16T14:33:14.257Z,62.76
2019-05-16T14:38:19.766Z,63.35
2019-05-16T14:43:27.207Z,61.71
2019-05-16T14:48:32.266Z,63.21
2019-05-16T14:53:38.079Z,60.78
2019-05-16T14:58:43.465Z,61.81
2019-05-16T15:03:48.680Z,63.14
2019-05-16T15:08:56.597Z,63.88
2019-05-16T15:14:01.322Z,64.83
2019-05-16T15:19:08.149Z,65.60
2019-05-16T15:24:13.983Z,65.32
2019-05-16T15:29:19.304Z,64.79
2019-05-16T15:34:29.878Z,61.77
2019-05-16T15:39:31.750Z,61.55
2019-05-16T15:44:37.111Z,58.69
2019-05-16T15:49:42.402Z,56.61
2019-05-16T15:54:47.982Z,56.92
2019-05-16T15:59:53.359Z,54.46
2019-05-16T16:04:58.751Z,48.92
2019-05-16T16:10:06.847Z,47.50
2019-05-16T16:15:11.567Z,47.24
2019-05-16T16:20:17.121Z,48.30
2019-05-16T16:25:22.730Z,49.14
2019-05-16T16:30:28.347Z,48.94
2019-05-16T16:35:33.896Z,48.33
2019-05-16T16:40:39.430Z,48.48
2019-05-16T16:45:47.702Z,48.54
2019-05-16T16:50:51.913Z,48.95
2019-05-16T16:55:57.174Z,48.14
2019-05-16T17:01:02.533Z,47.78
2019-05-16T17:06:08.154Z,47.26
2019-05-16T17:11:13.874Z,48.38
2019-05-16T17:16:25.630Z,47.26
2019-05-16T17:21:26.197Z,47.95
2019-05-16T17:26:31.691Z,48.86
2019-05-16T17:31:37.065Z,48.84
2019-05-16T17:36:42.346Z,50.73
2019-05-16T17:41:54.415Z,50.48
2019-05-16T17:46:57.277Z,52.29
2019-05-16T17:52:01.894Z,50.40
2019-05-16T17:57:07.651Z,50.30
2019-05-16T18:02:13.050Z,52.32
2019-05-16T18:07:18.430Z,51.79
2019-05-16T18:12:23.674Z,51.55
2019-05-16T18:17:28.995Z,52.94
2019-05-16T18:22:36.203Z,52.09
2019-05-16T18:27:41.503Z,51.87
2019-05-16T18:32:46.914Z,52.74
2019-05-16T18:37:52.153Z,53.30
2019-05-16T18:42:57.834Z,52.67
2019-05-16T18:48:03.147Z,53.01
2019-05-16T18:53:08.514Z,54.57
2019-05-16T18:58:13.990Z,54.47
2019-05-16T19:03:19.710Z,54.69
2019-05-16T19:08:27.108Z,55.56
2019-05-16T19:13:32.058Z,52.53
2019-05-16T19:18:37.358Z,50.21
2019-05-16T19:23:42.661Z,49.84
2019-05-16T19:28:48.011Z,51.66
2019-05-16T19:33:53.342Z,53.83
2019-05-16T19:38:58.581Z,54.94
2019-05-16T19:44:06.697Z,55.38
2019-05-16T19:49:12.393Z,53.51
2019-05-16T19:54:17.641Z,54.08
2019-05-16T19:59:22.994Z,54.61
2019-05-16T20:04:28.356Z,54.00
2019-05-16T20:09:33.656Z,54.19
2019-05-16T20:14:39.055Z,55.42
2019-05-16T20:19:44.493Z,56.56
2019-05-16T20:24:49.875Z,56.48
2019-05-16T20:29:56.437Z,56.35
2019-05-16T20:35:02.463Z,56.22
2019-05-16T20:40:12.080Z,56.78
2019-05-16T20:45:16.923Z,56.66
2019-05-16T20:50:22.559Z,57.17
2019-05-16T20:55:27.911Z,57.30
2019-05-16T21:00:33.242Z,57.32
2019-05-16T21:05:38.662Z,57.55
2019-05-16T21:10:46.283Z,57.64
2019-05-16T21:15:51.110Z,57.44
2019-05-16T21:20:57.436Z,57.51
2019-05-16T21:26:02.908Z,58.13
2019-05-16T21:31:08.102Z,59.18
2019-05-16T21:36:13.415Z,59.07
2019-05-16T21:41:18.830Z,58.85
2019-05-16T21:46:27.195Z,59.01
2019-05-16T21:51:32.161Z,59.07
2019-05-16T21:56:37.613Z,58.96
2019-05-16T22:01:43.334Z,59.21
2019-05-16T22:06:48.682Z,58.26
2019-05-16T22:11:53.910Z,58.21
2019-05-16T22:16:59.431Z,57.30
2019-05-16T22:22:07.293Z,56.46
2019-05-16T22:27:12.074Z,55.52
2019-05-16T22:32:17.502Z,55.62
2019-05-16T22:37:22.761Z,56.03
2019-05-16T22:42:28.151Z,56.40
2019-05-16T22:47:37.173Z,56.83
2019-05-16T22:52:41.324Z,57.25
2019-05-16T22:57:47.373Z,57.00
2019-05-16T23:02:52.910Z,56.72
2019-05-16T23:08:05.682Z,56.34
2019-05-16T23:13:06.765Z,55.68
2019-05-16T23:18:12.522Z,55.94
2019-05-16T23:23:17.835Z,56.15
2019-05-16T23:28:23.114Z,56.25
2019-05-16T23:33:28.511Z,56.14
2019-05-16T23:38:34.072Z,56.00
2019-05-16T23:43:39.350Z,56.46
2019-05-16T23:48:47.194Z,57.12
2019-05-16T23:53:52.633Z,57.96
2019-05-16T23:58:57.879Z,59.36
